Time;durP1;ratioP1;P1;durP2;ratioP2;P2;SDS_P1;SDS_P2;PMS_P1;PMS_P2;Temp;Humidity;BMP_temperature;BMP_pressure;BME280_temperature;BME280_humidity;BME280_pressure;Samples;Min_cycle;Max_cycle;Signal;HPM_P1;HPM_P2
2022/11/19 00:00:11;;;;;;;4.47;1.30;;;9.00;99.90;;;;;;5059022;28;20478;-64
2022/11/19 00:02:36;;;;;;;8.32;2.13;;;9.00;99.90;;;;;;5061842;28;20028;-64
2022/11/19 00:05:02;;;;;;;4.03;0.60;;;9.00;99.90;;;;;;5060552;28;20051;-64
2022/11/19 00:07:28;;;;;;;5.57;1.10;;;9.00;99.90;;;;;;5055042;28;20082;-64
2022/11/19 00:09:54;;;;;;;4.35;1.27;;;8.90;99.90;;;;;;5070616;28;20218;-64
2022/11/19 00:15:04;;;;;;;7.57;1.02;;;8.90;99.90;;;;;;5045825;28;20462;-64
2022/11/19 00:17:30;;;;;;;9.13;1.05;;;8.90;99.90;;;;;;5053311;28;20032;-64
2022/11/19 00:19:55;;;;;;;2.92;0.85;;;8.80;99.90;;;;;;5057232;28;20045;-64
2022/11/19 00:22:21;;;;;;;4.80;0.93;;;8.90;99.90;;;;;;5050784;28;20056;-64
2022/11/19 00:24:47;;;;;;;3.40;1.20;;;8.80;99.90;;;;;;5058911;28;20035;-64
2022/11/19 00:27:13;;;;;;;6.70;1.25;;;8.80;99.90;;;;;;5065716;28;20082;-63
2022/11/19 00:29:38;;;;;;;5.15;1.25;;;8.70;99.90;;;;;;5059781;28;20508;-64
2022/11/19 00:32:04;;;;;;;6.65;1.05;;;8.70;99.90;;;;;;5054500;28;20388;-63
2022/11/19 00:34:30;;;;;;;4.07;1.27;;;8.70;99.90;;;;;;5054316;28;20032;-64
2022/11/19 00:36:55;;;;;;;5.57;1.33;;;8.70;99.90;;;;;;5055506;28;20071;-63
2022/11/19 00:39:21;;;;;;;3.40;1.60;;;8.60;99.90;;;;;;5056793;28;20033;-63
2022/11/19 00:41:47;;;;;;;4.55;0.88;;;8.60;99.90;;;;;;5051621;28;20032;-63
2022/11/19 00:44:13;;;;;;;6.57;1.23;;;8.60;99.90;;;;;;5058335;28;20033;-64
2022/11/19 00:46:38;;;;;;;3.83;0.98;;;8.60;99.90;;;;;;5056448;28;20401;-63
2022/11/19 00:49:04;;;;;;;6.55;1.30;;;8.50;99.90;;;;;;5051331;28;20029;-64
2022/11/19 00:51:30;;;;;;;6.93;0.90;;;8.50;99.90;;;;;;5057853;28;20033;-64
2022/11/19 00:53:56;;;;;;;6.38;1.17;;;8.60;99.90;;;;;;5056503;28;20032;-64
2022/11/19 00:56:24;;;;;;;2.75;0.95;;;8.50;99.90;;;;;;5049282;28;20103;-64
2022/11/19 00:58:50;;;;;;;2.08;0.85;;;8.40;99.90;;;;;;5048147;28;20445;-64
2022/11/19 01:01:18;;;;;;;5.90;0.88;;;8.40;99.90;;;;;;5059200;28;20518;-65
2022/11/19 01:03:44;;;;;;;4.30;1.00;;;8.30;99.90;;;;;;5055246;28;20036;-64
2022/11/19 01:06:11;;;;;;;4.93;1.33;;;8.30;99.90;;;;;;5053978;28;20036;-65
2022/11/19 01:08:37;;;;;;;2.95;0.90;;;8.20;99.90;;;;;;5048734;28;20029;-64
2022/11/19 01:11:30;;;;;;;4.53;1.17;;;8.20;99.90;;;;;;5057575;28;20033;-64
2022/11/19 01:13:57;;;;;;;6.28;1.13;;;8.00;99.90;;;;;;5059386;28;20021;-64
2022/11/19 01:16:30;;;;;;;6.60;1.10;;;7.90;99.90;;;;;;5053882;28;20037;-64
2022/11/19 01:18:56;;;;;;;1.80;0.70;;;7.90;99.90;;;;;;5058730;28;20028;-64
2022/11/19 01:21:24;;;;;;;3.42;0.60;;;7.80;99.90;;;;;;5055522;28;20033;-64
2022/11/19 01:23:51;;;;;;;2.85;0.77;;;7.70;99.90;;;;;;5051225;28;20029;-65
2022/11/19 01:26:17;;;;;;;3.28;0.88;;;7.80;99.90;;;;;;5050747;28;20029;-64
2022/11/19 01:28:44;;;;;;;4.53;1.52;;;7.80;99.90;;;;;;5049981;28;20544;-63
2022/11/19 01:31:13;;;;;;;7.65;1.30;;;7.90;99.90;;;;;;5053525;28;20492;-64
2022/11/19 01:33:39;;;;;;;3.97;0.93;;;7.90;99.90;;;;;;5046861;28;20040;-63
2022/11/19 01:36:09;;;;;;;2.15;0.80;;;7.90;99.90;;;;;;5049763;28;20037;-64
2022/11/19 01:38:35;;;;;;;5.50;1.35;;;7.90;99.90;;;;;;5042040;28;20088;-63
2022/11/19 01:41:01;;;;;;;3.08;0.90;;;7.90;99.90;;;;;;5050288;28;20523;-63
2022/11/19 01:43:42;;;;;;;8.18;1.38;;;7.90;99.90;;;;;;5052646;28;20033;-63
2022/11/19 01:46:09;;;;;;;4.63;0.73;;;7.90;99.90;;;;;;5051214;28;20029;-63
2022/11/19 01:48:39;;;;;;;4.38;1.20;;;7.90;99.90;;;;;;5047656;28;20502;-64
2022/11/19 01:51:28;;;;;;;3.92;1.23;;;7.90;99.90;;;;;;5056973;28;20532;-63
2022/11/19 01:53:58;;;;;;;4.07;0.75;;;7.90;99.90;;;;;;5057049;28;20086;-63
2022/11/19 01:56:24;;;;;;;6.35;1.23;;;7.90;99.90;;;;;;5052794;28;20063;-62
2022/11/19 01:58:59;;;;;;;7.10;0.90;;;7.90;99.90;;;;;;5042295;28;20078;-63
2022/11/19 02:01:25;;;;;;;4.07;1.33;;;7.90;99.90;;;;;;5056744;28;20039;-64
2022/11/19 02:03:51;;;;;;;5.07;1.33;;;8.00;99.90;;;;;;5047189;28;20029;-64
2022/11/19 02:06:18;;;;;;;4.47;0.98;;;8.00;99.90;;;;;;5051622;28;20056;-64
2022/11/19 02:08:46;;;;;;;5.65;0.80;;;8.00;99.90;;;;;;5040220;28;20029;-64
2022/11/19 02:11:18;;;;;;;6.15;0.85;;;8.00;99.90;;;;;;5055641;28;20033;-63
2022/11/19 02:14:14;;;;;;;6.13;1.23;;;8.00;99.90;;;;;;5040257;28;20366;-63
2022/11/19 02:16:51;;;;;;;5.80;1.13;;;8.00;99.90;;;;;;5058824;28;20075;-64
2022/11/19 02:19:35;;;;;;;2.88;1.25;;;8.00;99.90;;;;;;5057047;28;20453;-63
2022/11/19 02:22:07;;;;;;;5.15;1.08;;;8.10;99.90;;;;;;5048190;28;20044;-63
2022/11/19 02:24:52;;;;;;;7.00;2.00;;;8.10;99.90;;;;;;5047219;28;20078;-63
2022/11/19 02:27:42;;;;;;;2.97;1.02;;;8.10;99.90;;;;;;5053175;28;20020;-63
2022/11/19 02:30:15;;;;;;;3.10;0.88;;;8.10;99.90;;;;;;5061167;28;20030;-63
2022/11/19 02:33:08;;;;;;;4.40;1.05;;;8.10;99.90;;;;;;5053913;28;20558;-63
2022/11/19 02:35:46;;;;;;;8.07;1.02;;;8.10;99.90;;;;;;5056575;28;20518;-63
2022/11/19 02:38:16;;;;;;;8.27;0.90;;;8.10;99.90;;;;;;5057300;28;20021;-63
2022/11/19 02:40:47;;;;;;;8.73;1.27;;;8.10;99.90;;;;;;5053748;28;20036;-63
2022/11/19 02:43:24;;;;;;;6.80;0.77;;;8.00;99.90;;;;;;5058657;28;20107;-63
2022/11/19 02:46:00;;;;;;;5.05;1.00;;;8.00;99.90;;;;;;5062425;28;20033;-63
2022/11/19 02:48:37;;;;;;;5.07;1.27;;;7.90;99.90;;;;;;5055027;28;20039;-63
2022/11/19 02:51:04;;;;;;;5.15;0.88;;;7.80;99.90;;;;;;5061184;28;20040;-63
2022/11/19 02:53:31;;;;;;;4.45;0.98;;;7.60;99.90;;;;;;5059646;28;20032;-63
2022/11/19 02:56:11;;;;;;;4.28;0.77;;;7.50;99.90;;;;;;5061650;28;20392;-62
2022/11/19 03:04:31;;;;;;;4.50;0.65;;;7.20;99.90;;;;;;5053530;28;20116;-63
2022/11/19 03:07:18;;;;;;;2.80;1.05;;;7.00;99.90;;;;;;5055897;28;20115;-63
2022/11/19 03:09:51;;;;;;;3.53;0.65;;;7.00;99.90;;;;;;5053018;28;20060;-63
2022/11/19 03:12:22;;;;;;;5.32;1.05;;;6.90;99.90;;;;;;5054293;28;20020;-63
2022/11/19 03:17:59;;;;;;;2.53;1.13;;;6.90;99.90;;;;;;5059214;28;20174;-64
2022/11/19 03:21:14;;;;;;;10.20;1.20;;;6.90;99.90;;;;;;5054947;28;20122;-64
2022/11/19 03:23:50;;;;;;;4.95;0.70;;;6.90;99.90;;;;;;5043592;28;20568;-63
2022/11/19 03:26:33;;;;;;;10.95;1.83;;;6.90;99.90;;;;;;5061104;28;20016;-63
2022/11/19 03:29:04;;;;;;;5.20;0.85;;;6.90;99.90;;;;;;5059147;28;20035;-64
2022/11/19 03:31:33;;;;;;;4.90;0.88;;;6.80;99.90;;;;;;5053178;28;20070;-63
2022/11/19 03:34:03;;;;;;;5.85;0.82;;;6.80;99.90;;;;;;5058842;28;20430;-64
2022/11/19 03:36:34;;;;;;;3.28;1.02;;;6.90;99.90;;;;;;5055555;28;20036;-64
2022/11/19 03:39:02;;;;;;;3.92;0.90;;;7.00;99.90;;;;;;5058220;28;20024;-63
2022/11/19 03:41:30;;;;;;;5.93;1.00;;;7.10;99.90;;;;;;5055699;28;20024;-63
2022/11/19 03:44:01;;;;;;;4.07;1.02;;;7.20;99.90;;;;;;5054105;28;20021;-63
2022/11/19 03:46:29;;;;;;;4.70;0.80;;;7.20;99.90;;;;;;5061566;28;20021;-63
2022/11/19 03:48:57;;;;;;;4.85;1.05;;;7.20;99.90;;;;;;5064266;28;20025;-63
2022/11/19 03:51:39;;;;;;;8.82;1.25;;;7.30;99.90;;;;;;5061554;28;20485;-63
2022/11/19 03:54:06;;;;;;;2.70;0.95;;;7.30;99.90;;;;;;5061946;28;20191;-63
2022/11/19 03:56:36;;;;;;;6.78;1.00;;;7.30;99.90;;;;;;5063354;28;20491;-64
2022/11/19 03:59:03;;;;;;;5.97;1.08;;;7.30;99.90;;;;;;5065088;28;20549;-63
2022/11/19 04:01:30;;;;;;;6.53;1.13;;;7.30;99.90;;;;;;5059073;28;20528;-63
2022/11/19 04:06:40;;;;;;;10.63;1.05;;;7.40;99.90;;;;;;5061179;28;20054;-63
2022/11/19 04:09:05;;;;;;;7.78;1.40;;;7.40;99.90;;;;;;5066923;28;20487;-63
2022/11/19 04:11:31;;;;;;;5.47;1.63;;;7.40;99.90;;;;;;5056730;28;20037;-63
2022/11/19 04:13:57;;;;;;;4.80;1.40;;;7.50;99.90;;;;;;5062469;28;20059;-64
2022/11/19 04:16:22;;;;;;;5.47;0.98;;;7.60;99.90;;;;;;5064231;28;20079;-63
2022/11/19 04:18:48;;;;;;;3.85;0.90;;;7.60;99.90;;;;;;5060036;28;20036;-63
2022/11/19 04:21:14;;;;;;;3.33;1.25;;;7.60;99.90;;;;;;5064920;28;20021;-63
2022/11/19 04:23:39;;;;;;;5.47;0.70;;;7.60;99.90;;;;;;5061159;28;20115;-63
2022/11/19 04:26:05;;;;;;;7.50;1.00;;;7.60;99.90;;;;;;5065311;28;20024;-63
2022/11/19 04:28:31;;;;;;;7.40;1.25;;;7.70;99.90;;;;;;5058690;28;20027;-64
2022/11/19 04:30:56;;;;;;;6.85;1.02;;;7.70;99.90;;;;;;5061695;28;20021;-63
2022/11/19 04:33:22;;;;;;;3.70;0.85;;;7.70;99.90;;;;;;5065521;28;20401;-64
2022/11/19 04:35:48;;;;;;;3.33;0.70;;;7.70;99.90;;;;;;5054485;28;20055;-63
2022/11/19 04:38:14;;;;;;;2.28;0.63;;;7.80;99.90;;;;;;5061524;28;20041;-64
2022/11/19 04:40:40;;;;;;;2.20;0.63;;;7.80;99.90;;;;;;5059590;28;20052;-63
2022/11/19 04:43:06;;;;;;;4.72;0.75;;;7.80;99.90;;;;;;5062810;28;20082;-63
2022/11/19 04:45:32;;;;;;;6.05;1.25;;;7.80;99.90;;;;;;5056387;28;20064;-64
2022/11/19 04:47:58;;;;;;;5.97;1.15;;;7.80;99.90;;;;;;5061424;28;20028;-64
2022/11/19 04:50:23;;;;;;;2.22;0.85;;;7.80;99.90;;;;;;5064484;28;20047;-64
2022/11/19 04:52:49;;;;;;;5.57;0.95;;;7.80;99.90;;;;;;5056676;28;20036;-64
2022/11/19 04:55:15;;;;;;;3.40;0.77;;;7.80;99.90;;;;;;5053060;28;20448;-63
2022/11/19 04:57:40;;;;;;;3.58;0.70;;;7.80;99.90;;;;;;5052906;28;20025;-64
2022/11/19 05:00:07;;;;;;;6.50;1.02;;;7.90;99.90;;;;;;5055064;28;20033;-64
2022/11/19 05:02:33;;;;;;;3.80;0.90;;;7.90;99.90;;;;;;5058794;28;20021;-63
2022/11/19 05:04:58;;;;;;;4.82;0.90;;;7.90;99.90;;;;;;5064513;28;20021;-63
2022/11/19 05:07:24;;;;;;;4.55;1.77;;;8.00;99.90;;;;;;5065746;28;20486;-63
2022/11/19 05:09:50;;;;;;;7.15;0.90;;;8.00;99.90;;;;;;5060654;28;20032;-64
2022/11/19 05:12:15;;;;;;;4.95;0.88;;;8.00;99.90;;;;;;5052603;28;20068;-63
2022/11/19 05:14:41;;;;;;;8.82;2.15;;;8.00;99.90;;;;;;5065317;28;20086;-62
2022/11/19 05:17:07;;;;;;;5.95;1.20;;;8.00;99.90;;;;;;5060709;28;20029;-64
2022/11/19 05:19:33;;;;;;;5.50;0.95;;;8.00;99.90;;;;;;5066932;28;20035;-63
2022/11/19 05:21:58;;;;;;;7.63;1.35;;;8.10;99.90;;;;;;5063401;28;20380;-63
2022/11/19 05:24:24;;;;;;;5.22;0.68;;;8.10;99.90;;;;;;5056820;28;20025;-63
2022/11/19 05:26:50;;;;;;;5.90;1.05;;;8.10;99.90;;;;;;5055930;28;20024;-64
2022/11/19 05:29:16;;;;;;;2.75;1.10;;;8.10;99.90;;;;;;5067407;28;20028;-63
2022/11/19 05:31:41;;;;;;;2.88;0.80;;;8.10;99.90;;;;;;5060088;28;20388;-63
2022/11/19 05:34:07;;;;;;;7.18;1.45;;;8.10;99.90;;;;;;5059379;28;20062;-63
2022/11/19 05:36:33;;;;;;;3.33;0.70;;;8.10;99.90;;;;;;5049379;28;20024;-63
2022/11/19 05:38:58;;;;;;;5.05;0.65;;;8.10;99.90;;;;;;5060259;28;20037;-65
2022/11/19 05:41:24;;;;;;;5.13;0.68;;;8.10;99.90;;;;;;5054840;28;20035;-64
2022/11/19 05:43:50;;;;;;;7.97;1.15;;;8.10;99.90;;;;;;5050057;28;20541;-63
2022/11/19 05:46:15;;;;;;;6.18;0.70;;;8.10;99.90;;;;;;5050688;28;20060;-63
2022/11/19 05:48:41;;;;;;;6.72;0.90;;;8.20;99.90;;;;;;5052766;28;20496;-63
2022/11/19 05:51:07;;;;;;;3.55;0.70;;;8.20;99.90;;;;;;5049681;28;20028;-64
2022/11/19 05:53:32;;;;;;;3.88;1.23;;;8.20;99.90;;;;;;5056669;28;20021;-63
2022/11/19 05:55:58;;;;;;;5.55;0.82;;;8.20;99.90;;;;;;5053204;28;20029;-63
2022/11/19 05:58:24;;;;;;;6.55;1.20;;;8.20;99.90;;;;;;5063472;28;20502;-64
2022/11/19 06:00:54;;;;;;;8.95;1.33;;;8.20;99.90;;;;;;5060922;28;20044;-64
2022/11/19 06:03:19;;;;;;;3.60;0.80;;;8.20;99.90;;;;;;5060696;28;20077;-64
2022/11/19 06:05:45;;;;;;;5.80;0.95;;;8.20;99.90;;;;;;5055420;28;20138;-63
2022/11/19 06:08:11;;;;;;;2.72;1.10;;;8.20;99.90;;;;;;5055716;28;20032;-64
2022/11/19 06:10:36;;;;;;;2.92;0.57;;;8.20;99.90;;;;;;5056081;28;20109;-64
2022/11/19 06:13:02;;;;;;;2.65;1.10;;;8.20;99.90;;;;;;5056178;28;20032;-64
2022/11/19 06:15:28;;;;;;;4.88;1.25;;;8.20;99.90;;;;;;5051508;28;20072;-64
2022/11/19 06:17:55;;;;;;;1.98;0.80;;;8.20;99.90;;;;;;5049926;28;20370;-63
2022/11/19 06:20:21;;;;;;;3.72;1.40;;;8.10;99.90;;;;;;5048591;28;20120;-64
2022/11/19 06:22:46;;;;;;;8.57;1.27;;;8.10;99.90;;;;;;5049768;28;20120;-64
2022/11/19 06:25:12;;;;;;;5.07;1.75;;;8.10;99.90;;;;;;5056615;28;20036;-64
2022/11/19 06:27:38;;;;;;;4.00;1.38;;;8.10;99.90;;;;;;5057024;28;20025;-64
2022/11/19 06:30:06;;;;;;;6.93;1.00;;;8.10;99.90;;;;;;5049624;28;20075;-64
2022/11/19 06:32:32;;;;;;;2.30;0.60;;;8.10;99.90;;;;;;5056294;28;20067;-64
2022/11/19 06:34:58;;;;;;;4.70;1.33;;;8.20;99.90;;;;;;5044868;28;20021;-64
2022/11/19 06:37:24;;;;;;;3.17;0.77;;;8.10;99.90;;;;;;5056426;28;20052;-65
2022/11/19 06:39:49;;;;;;;6.68;1.20;;;8.10;99.90;;;;;;5051106;28;20041;-65
2022/11/19 06:44:59;;;;;;;1.98;0.60;;;8.20;99.90;;;;;;5051442;28;20083;-64
2022/11/19 06:47:25;;;;;;;5.60;0.70;;;8.20;99.90;;;;;;5050953;28;20033;-64
2022/11/19 06:49:51;;;;;;;1.50;0.70;;;8.20;99.90;;;;;;5052936;28;20032;-64
2022/11/19 06:52:16;;;;;;;1.65;0.98;;;8.20;99.90;;;;;;5058827;28;20082;-64
2022/11/19 06:54:42;;;;;;;2.97;0.68;;;8.20;99.90;;;;;;5046865;28;20028;-64
2022/11/19 06:57:07;;;;;;;4.82;0.98;;;8.20;99.90;;;;;;5048847;28;20108;-63
2022/11/19 06:59:34;;;;;;;4.32;0.70;;;8.20;99.90;;;;;;5053008;28;20048;-65
2022/11/19 07:01:59;;;;;;;4.40;0.70;;;8.30;99.90;;;;;;5051674;28;20040;-64
2022/11/19 07:04:26;;;;;;;2.38;0.50;;;8.30;99.90;;;;;;5051872;28;20033;-64
2022/11/19 07:06:51;;;;;;;6.07;1.20;;;8.30;99.90;;;;;;5052848;28;20028;-64
2022/11/19 07:09:17;;;;;;;2.95;0.80;;;8.20;99.90;;;;;;5059989;28;20024;-64
2022/11/19 07:11:43;;;;;;;2.15;0.70;;;8.20;99.90;;;;;;5048536;28;20034;-64
2022/11/19 07:14:08;;;;;;;2.80;1.23;;;8.20;99.90;;;;;;5041503;28;20065;-64
2022/11/19 07:16:35;;;;;;;6.68;0.70;;;8.20;99.90;;;;;;5049830;28;20041;-64
2022/11/19 07:19:04;;;;;;;4.38;0.80;;;8.20;99.90;;;;;;5051364;28;20025;-64
2022/11/19 07:21:30;;;;;;;1.85;1.00;;;8.30;99.90;;;;;;5059970;28;20031;-64
2022/11/19 07:23:57;;;;;;;4.28;0.80;;;8.30;99.90;;;;;;5058402;28;20036;-64
2022/11/19 07:26:24;;;;;;;3.88;0.60;;;8.20;99.90;;;;;;5055126;28;20025;-64
2022/11/19 07:28:50;;;;;;;7.47;1.13;;;8.30;99.90;;;;;;5063265;28;20059;-64
2022/11/19 07:31:16;;;;;;;3.13;0.77;;;8.30;99.90;;;;;;5059118;28;20024;-64
2022/11/19 07:33:41;;;;;;;6.43;0.68;;;8.30;99.90;;;;;;5059450;28;20464;-64
2022/11/19 07:36:09;;;;;;;3.40;0.75;;;8.40;99.90;;;;;;5059369;28;20488;-64
2022/11/19 07:38:36;;;;;;;4.47;0.80;;;8.30;99.90;;;;;;5060857;28;20048;-65
2022/11/19 07:42:48;;;;;;;4.07;0.80;;;8.30;99.90;;;;;;5049312;28;20032;-64
2022/11/19 07:43:49;;;;;;;5.90;1.10;;;8.30;99.90;;;;;;5061295;28;20029;-64
2022/11/19 07:46:15;;;;;;;2.17;0.57;;;8.30;99.90;;;;;;5056678;28;20079;-64
2022/11/19 07:48:40;;;;;;;5.50;0.70;;;8.30;99.90;;;;;;5057920;28;20387;-64
2022/11/19 07:51:06;;;;;;;3.53;1.00;;;8.30;99.90;;;;;;5058400;28;20021;-64
2022/11/19 07:53:32;;;;;;;5.53;0.60;;;8.40;99.90;;;;;;5057946;28;20032;-65
2022/11/19 07:56:01;;;;;;;7.43;0.85;;;8.40;99.90;;;;;;5054959;28;20057;-64
2022/11/19 07:58:27;;;;;;;3.97;0.85;;;8.40;99.90;;;;;;5050955;28;20033;-64
2022/11/19 08:00:53;;;;;;;8.68;1.63;;;8.50;99.90;;;;;;5063145;28;20043;-64
2022/11/19 08:03:19;;;;;;;6.53;0.88;;;8.50;99.90;;;;;;5053162;28;20107;-64
2022/11/19 08:05:45;;;;;;;4.35;0.85;;;8.50;99.90;;;;;;5057408;28;20090;-63
2022/11/19 08:08:11;;;;;;;7.22;0.93;;;8.50;99.90;;;;;;5048510;28;20070;-64
2022/11/19 08:10:37;;;;;;;2.55;1.23;;;8.60;99.90;;;;;;5066283;28;20028;-65
2022/11/19 08:13:02;;;;;;;8.75;1.80;;;8.60;99.90;;;;;;5050088;28;20435;-64
2022/11/19 08:15:32;;;;;;;4.30;1.23;;;8.60;99.90;;;;;;5053249;28;20079;-65
2022/11/19 08:18:15;;;;;;;3.47;0.60;;;8.60;99.90;;;;;;5049232;28;20060;-64
2022/11/19 08:20:47;;;;;;;2.20;1.00;;;8.70;99.90;;;;;;5054527;28;20036;-64
2022/11/19 08:23:13;;;;;;;5.03;1.10;;;8.70;99.90;;;;;;5052290;28;20017;-64
2022/11/19 08:25:43;;;;;;;4.20;0.98;;;8.70;99.90;;;;;;5048886;28;20036;-64
2022/11/19 08:28:09;;;;;;;5.80;1.00;;;8.80;99.90;;;;;;5057129;28;20044;-63
2022/11/19 08:30:34;;;;;;;3.05;0.60;;;8.80;99.90;;;;;;5048688;28;20021;-64
2022/11/19 08:33:00;;;;;;;4.38;1.33;;;8.80;99.90;;;;;;5054800;28;20043;-65
2022/11/19 08:35:26;;;;;;;6.70;1.40;;;8.80;99.90;;;;;;5059530;28;20023;-65
2022/11/19 08:37:52;;;;;;;3.83;0.85;;;8.90;99.90;;;;;;5052092;28;20026;-63
2022/11/19 08:40:18;;;;;;;6.35;1.05;;;8.90;99.90;;;;;;5063028;28;20373;-65
2022/11/19 08:42:59;;;;;;;5.00;1.20;;;8.90;99.90;;;;;;5055898;28;20534;-64
2022/11/19 08:45:29;;;;;;;7.32;0.93;;;8.90;99.90;;;;;;5055623;28;20063;-65
2022/11/19 08:47:56;;;;;;;3.83;0.85;;;8.90;99.90;;;;;;5056981;28;20493;-64
2022/11/19 08:50:23;;;;;;;4.22;0.85;;;9.00;99.90;;;;;;5060806;28;20028;-64
2022/11/19 08:52:59;;;;;;;5.85;0.88;;;9.00;99.90;;;;;;5057117;28;20098;-64
2022/11/19 08:55:26;;;;;;;3.83;0.93;;;9.10;99.90;;;;;;5049498;28;20024;-64
2022/11/19 08:57:57;;;;;;;5.45;1.33;;;9.10;99.90;;;;;;5061836;28;20487;-63
2022/11/19 09:00:23;;;;;;;3.77;1.00;;;9.10;99.90;;;;;;5052474;28;20090;-64
2022/11/19 09:02:49;;;;;;;3.80;1.08;;;9.00;99.90;;;;;;5050932;28;20484;-64
2022/11/19 09:05:15;;;;;;;8.98;0.93;;;9.00;99.90;;;;;;5060507;28;20117;-64
2022/11/19 09:07:40;;;;;;;7.00;0.90;;;9.10;99.90;;;;;;5051685;28;20074;-64
2022/11/19 09:10:07;;;;;;;5.35;1.10;;;9.10;99.90;;;;;;5053016;28;20025;-63
2022/11/19 09:12:33;;;;;;;4.50;0.85;;;9.10;99.90;;;;;;5046595;28;20021;-64
2022/11/19 09:14:58;;;;;;;6.65;0.75;;;9.20;99.90;;;;;;5057252;28;20398;-64
2022/11/19 09:17:24;;;;;;;5.20;0.90;;;9.20;99.90;;;;;;5049666;28;20033;-64
2022/11/19 09:19:50;;;;;;;6.40;0.75;;;9.30;99.90;;;;;;5047086;28;20041;-64
2022/11/19 09:22:15;;;;;;;5.10;1.30;;;9.30;99.90;;;;;;5052889;28;20429;-64
2022/11/19 09:24:41;;;;;;;5.93;0.73;;;9.30;99.90;;;;;;5059828;28;20025;-64
2022/11/19 09:27:07;;;;;;;2.20;0.98;;;9.30;99.90;;;;;;5053336;28;20074;-64
2022/11/19 09:29:33;;;;;;;4.93;0.63;;;9.40;99.90;;;;;;5051719;28;20096;-64
2022/11/19 09:31:58;;;;;;;3.65;1.23;;;9.40;99.90;;;;;;5057490;28;20029;-65
2022/11/19 09:34:24;;;;;;;4.40;0.80;;;9.40;99.90;;;;;;5046387;28;20423;-63
2022/11/19 09:36:50;;;;;;;7.80;1.80;;;9.40;99.90;;;;;;5057502;28;20040;-63
2022/11/19 09:39:16;;;;;;;7.90;1.20;;;9.50;99.90;;;;;;5056234;28;20021;-62
2022/11/19 09:42:02;;;;;;;5.45;1.25;;;9.50;99.90;;;;;;5051412;28;20445;-64
2022/11/19 09:44:54;;;;;;;5.10;1.88;;;9.60;99.90;;;;;;5049711;28;20511;-63
2022/11/19 09:47:50;;;;;;;2.78;0.93;;;9.60;99.90;;;;;;5059138;28;20081;-64
2022/11/19 09:50:19;;;;;;;3.20;0.70;;;9.70;99.90;;;;;;5048566;28;20039;-64
2022/11/19 09:52:53;;;;;;;2.95;0.70;;;9.70;99.90;;;;;;5051665;28;20048;-65
2022/11/19 09:55:25;;;;;;;4.03;0.80;;;9.70;99.90;;;;;;5058242;28;20159;-65
2022/11/19 09:57:54;;;;;;;7.65;1.10;;;9.70;99.90;;;;;;5054450;28;20048;-65
2022/11/19 10:00:22;;;;;;;3.08;1.35;;;9.70;99.90;;;;;;5052297;28;20039;-64
2022/11/19 10:02:49;;;;;;;5.43;0.98;;;9.80;99.90;;;;;;5051052;28;20029;-65
2022/11/19 10:05:30;;;;;;;4.05;1.98;;;9.90;99.90;;;;;;5038698;28;20025;-65
2022/11/19 10:08:14;;;;;;;1.95;0.65;;;10.00;99.90;;;;;;5048179;28;20029;-65
2022/11/19 10:11:13;;;;;;;4.85;0.90;;;10.00;99.90;;;;;;5050057;28;20032;-65
2022/11/19 10:14:02;;;;;;;7.53;1.27;;;10.10;99.90;;;;;;5048828;28;20025;-65
2022/11/19 10:16:30;;;;;;;4.50;0.68;;;10.20;99.90;;;;;;5054001;28;20397;-65
2022/11/19 10:19:13;;;;;;;3.22;0.70;;;10.20;99.90;;;;;;5047115;28;20050;-71
2022/11/19 10:21:46;;;;;;;2.80;0.90;;;10.20;99.90;;;;;;5052419;28;20029;-66
2022/11/19 10:24:17;;;;;;;4.95;0.88;;;10.20;99.90;;;;;;5045317;28;20051;-66
2022/11/19 10:26:56;;;;;;;4.10;1.08;;;10.20;99.90;;;;;;5046691;28;20062;-66
2022/11/19 10:29:26;;;;;;;6.15;0.68;;;10.20;99.90;;;;;;5044998;28;20021;-66
2022/11/19 10:31:53;;;;;;;2.42;1.00;;;10.20;99.90;;;;;;5047563;28;20033;-66
2022/11/19 10:34:32;;;;;;;6.35;1.70;;;10.20;99.90;;;;;;5039939;28;20119;-66
2022/11/19 10:37:08;;;;;;;4.65;0.70;;;10.20;99.90;;;;;;5044352;28;20032;-66
2022/11/19 10:39:39;;;;;;;4.63;0.90;;;10.20;99.90;;;;;;5044626;28;20083;-63
2022/11/19 10:42:25;;;;;;;5.53;1.50;;;10.30;99.90;;;;;;5046996;28;20033;-68
2022/11/19 10:45:11;;;;;;;2.35;0.52;;;10.30;99.90;;;;;;5044628;28;20436;-66
2022/11/19 10:48:17;;;;;;;5.82;1.20;;;10.40;99.90;;;;;;5035003;28;20442;-65
2022/11/19 10:50:43;;;;;;;5.72;0.93;;;10.50;99.90;;;;;;5051094;28;20102;-65
2022/11/19 10:53:25;;;;;;;3.00;1.42;;;10.50;99.90;;;;;;5048087;28;20063;-65
2022/11/19 10:55:57;;;;;;;3.03;0.50;;;10.60;99.90;;;;;;5051465;28;20365;-66
2022/11/19 10:58:24;;;;;;;;;;;10.40;99.90;;;;;;5047797;28;20179;-72
2022/11/19 11:00:55;;;;;;;6.47;1.00;;;10.20;99.90;;;;;;5057565;28;20264;-64
2022/11/19 11:03:30;;;;;;;4.72;1.02;;;10.20;99.90;;;;;;5033281;28;20026;-64
2022/11/19 11:05:57;;;;;;;3.22;0.60;;;10.30;99.90;;;;;;5044671;28;20029;-64
2022/11/19 11:08:23;;;;;;;3.75;0.85;;;10.60;99.90;;;;;;5051143;28;20051;-64
2022/11/19 11:10:51;;;;;;;5.00;1.00;;;10.80;99.90;;;;;;5035860;28;20037;-65
2022/11/19 11:16:17;;;;;;;3.22;1.17;;;11.60;99.90;;;;;;5051742;28;20103;-65
2022/11/19 11:18:44;;;;;;;5.25;1.20;;;12.50;99.90;;;;;;5051668;28;20116;-66
2022/11/19 11:21:32;;;;;;;1.88;0.95;;;13.00;99.90;;;;;;5042044;28;20091;-65
2022/11/19 11:24:01;;;;;;;5.35;0.88;;;13.40;99.90;;;;;;5055407;28;20108;-65
2022/11/19 11:26:28;;;;;;;5.68;0.85;;;12.80;99.90;;;;;;5063189;28;20035;-65
2022/11/19 11:29:07;;;;;;;1.17;0.68;;;12.00;99.90;;;;;;5052072;28;20033;-64
2022/11/19 11:31:41;;;;;;;2.85;0.90;;;12.20;99.90;;;;;;5059517;28;20036;-67
2022/11/19 11:34:26;;;;;;;3.10;0.80;;;12.40;99.90;;;;;;5057142;28;20032;-65
2022/11/19 11:36:52;;;;;;;3.50;0.60;;;12.60;99.90;;;;;;5046315;28;20028;-65
2022/11/19 11:39:26;;;;;;;4.75;0.95;;;13.00;99.90;;;;;;5048490;28;20037;-65
2022/11/19 11:41:53;;;;;;;3.65;1.00;;;13.70;99.90;;;;;;5060659;28;20025;-65
2022/11/19 11:44:22;;;;;;;6.22;0.75;;;13.40;99.90;;;;;;5051345;28;20025;-64
2022/11/19 11:46:49;;;;;;;4.10;0.80;;;12.70;99.90;;;;;;5052928;28;20017;-64
2022/11/19 11:49:31;;;;;;;4.57;0.80;;;12.90;99.90;;;;;;5052858;28;20021;-64
2022/11/19 11:52:12;;;;;;;2.65;0.68;;;12.80;99.90;;;;;;5048439;28;20072;-66
2022/11/19 11:55:06;;;;;;;3.08;0.88;;;12.50;99.90;;;;;;5051177;28;20021;-66
2022/11/19 11:57:32;;;;;;;4.47;1.10;;;12.20;99.90;;;;;;5049888;28;20120;-65
2022/11/19 11:59:59;;;;;;;2.33;0.63;;;12.10;99.90;;;;;;5053339;28;20029;-66
2022/11/19 12:02:29;;;;;;;2.28;1.17;;;11.90;99.90;;;;;;5059653;28;20353;-66
2022/11/19 12:04:57;;;;;;;1.55;0.30;;;12.10;99.90;;;;;;5055145;28;20036;-64
2022/11/19 12:07:29;;;;;;;3.55;0.45;;;12.60;99.90;;;;;;5066981;28;20103;-65
2022/11/19 12:09:54;;;;;;;3.15;0.60;;;13.40;99.90;;;;;;5058963;28;20055;-65
2022/11/19 12:12:36;;;;;;;1.90;0.50;;;13.60;99.90;;;;;;5066609;28;20472;-65
2022/11/19 12:15:24;;;;;;;2.95;0.82;;;14.20;99.90;;;;;;5066707;28;20500;-64
2022/11/19 12:18:04;;;;;;;4.10;0.70;;;14.00;99.90;;;;;;5051756;28;20036;-65
2022/11/19 12:21:02;;;;;;;1.13;0.57;;;13.80;99.90;;;;;;5052684;28;20033;-65
2022/11/19 12:23:37;;;;;;;1.25;0.60;;;13.40;99.90;;;;;;5038491;28;20029;-65
2022/11/19 12:26:57;;;;;;;3.45;0.57;;;13.30;99.90;;;;;;5033093;28;21431;-65
2022/11/19 12:29:55;;;;;;;1.77;0.50;;;13.00;99.90;;;;;;5007644;28;20137;-65
2022/11/19 12:32:47;;;;;;;2.70;0.55;;;12.80;99.90;;;;;;5002278;28;20445;-65
2022/11/19 12:35:55;;;;;;;1.58;0.57;;;12.70;99.90;;;;;;4995462;28;20110;-66
2022/11/19 12:38:31;;;;;;;3.42;0.70;;;12.80;99.90;;;;;;5000337;28;20452;-65
2022/11/19 12:41:27;;;;;;;1.85;0.60;;;12.60;99.90;;;;;;4999291;28;20044;-65
2022/11/19 12:43:59;;;;;;;0.52;0.25;;;12.70;99.90;;;;;;5001389;28;20105;-64
2022/11/19 12:46:53;;;;;;;2.33;0.38;;;13.00;99.90;;;;;;5000375;28;20045;-65
2022/11/19 12:49:47;;;;;;;0.90;0.30;;;13.10;99.90;;;;;;5002678;28;20034;-65
2022/11/19 12:52:42;;;;;;;2.78;0.50;;;13.00;99.90;;;;;;4990140;28;20042;-65
2022/11/19 12:55:26;;;;;;;1.33;0.70;;;12.90;99.90;;;;;;5000329;28;20026;-65
2022/11/19 12:57:54;;;;;;;1.58;0.75;;;12.80;99.90;;;;;;5005914;28;20060;-64
2022/11/19 13:00:26;;;;;;;1.92;0.50;;;12.60;99.90;;;;;;4986343;28;20179;-65
2022/11/19 13:03:13;;;;;;;3.08;0.65;;;12.50;99.90;;;;;;4980339;28;20022;-66
2022/11/19 13:06:08;;;;;;;2.15;0.50;;;12.30;99.90;;;;;;5042328;28;20115;-66
2022/11/19 13:08:46;;;;;;;3.65;1.45;;;12.20;99.90;;;;;;5059093;28;20036;-66
2022/11/19 13:11:38;;;;;;;0.95;0.63;;;12.20;99.90;;;;;;5057159;28;20025;-66
2022/11/19 13:14:31;;;;;;;2.47;0.32;;;12.10;99.90;;;;;;5055180;28;20048;-66
2022/11/19 13:16:59;;;;;;;2.38;0.50;;;11.80;99.90;;;;;;5058706;28;20073;-66
2022/11/19 13:19:32;;;;;;;2.13;1.02;;;11.80;99.90;;;;;;5067306;28;20028;-65
2022/11/19 13:22:20;;;;;;;0.70;0.40;;;11.80;99.90;;;;;;5063177;28;20021;-65
2022/11/19 13:24:54;;;;;;;1.95;0.50;;;11.70;99.90;;;;;;5042264;28;20023;-65
2022/11/19 13:27:23;;;;;;;2.05;0.77;;;11.80;99.90;;;;;;5052234;28;20035;-65
2022/11/19 13:30:05;;;;;;;1.45;0.60;;;11.80;99.90;;;;;;5060705;28;20380;-64
2022/11/19 13:32:43;;;;;;;1.88;0.80;;;11.80;99.90;;;;;;5054602;28;20026;-64
2022/11/19 13:35:45;;;;;;;0.75;0.30;;;11.70;99.90;;;;;;5045237;28;20033;-66